Time;durP1;ratioP1;P1;durP2;ratioP2;P2;SDS_P1;SDS_P2;PMS_P1;PMS_P2;Temp;Humidity;BMP_temperature;BMP_pressure;BME280_temperature;BME280_humidity;BME280_pressure;Samples;Min_cycle;Max_cycle;Signal;HPM_P1;HPM_P2
2021/06/28 00:01:05;;;;;;;13.03;9.47;;;14.70;99.90;;;;;;4477772;27;657518;-70
2021/06/28 00:03:53;;;;;;;14.83;9.00;;;14.60;99.90;;;;;;4475606;27;658195;-69
2021/06/28 00:06:41;;;;;;;15.23;9.93;;;14.60;99.90;;;;;;4485544;27;658077;-70
2021/06/28 00:09:30;;;;;;;12.60;9.93;;;14.60;99.90;;;;;;4465595;27;657457;-69
2021/06/28 00:12:18;;;;;;;18.00;8.80;;;14.60;99.90;;;;;;4468372;27;657279;-69
2021/06/28 00:15:07;;;;;;;10.50;9.30;;;14.60;99.90;;;;;;4493892;27;658538;-69
2021/06/28 00:17:55;;;;;;;12.33;9.40;;;14.50;99.90;;;;;;4478906;27;658363;-69
2021/06/28 00:20:43;;;;;;;13.30;9.23;;;14.50;99.90;;;;;;4486303;27;657638;-69
2021/06/28 00:23:30;;;;;;;18.00;10.53;;;14.50;99.90;;;;;;4494538;27;657332;-70
2021/06/28 00:26:19;;;;;;;13.57;9.70;;;14.50;99.90;;;;;;4480807;27;658823;-69
2021/06/28 00:29:07;;;;;;;12.63;9.40;;;14.50;99.90;;;;;;4492315;27;657712;-70
2021/06/28 00:31:55;;;;;;;13.03;9.43;;;14.40;99.90;;;;;;4478350;27;658570;-69
2021/06/28 00:34:43;;;;;;;15.57;10.37;;;14.40;99.90;;;;;;4481097;27;658268;-69
2021/06/28 00:37:30;;;;;;;11.67;9.57;;;14.30;99.90;;;;;;4491345;27;658434;-70
2021/06/28 00:40:18;;;;;;;14.00;10.00;;;14.30;99.90;;;;;;4475488;27;657734;-70
2021/06/28 00:43:07;;;;;;;13.80;9.97;;;14.30;99.90;;;;;;4499926;27;659112;-70
2021/06/28 00:45:55;;;;;;;15.17;9.73;;;14.30;99.90;;;;;;4472370;27;657934;-69
2021/06/28 00:48:43;;;;;;;13.30;10.20;;;14.30;99.90;;;;;;4481145;27;658059;-70
2021/06/28 00:51:30;;;;;;;15.33;10.03;;;14.30;99.90;;;;;;4502077;27;659118;-70
2021/06/28 00:54:18;;;;;;;11.30;9.50;;;14.40;99.90;;;;;;4478267;27;658774;-69
2021/06/28 00:57:06;;;;;;;12.27;10.47;;;14.30;99.90;;;;;;4503034;27;658566;-69
2021/06/28 00:59:55;;;;;;;12.03;9.57;;;14.30;99.90;;;;;;4480693;27;658289;-69
2021/06/28 01:02:43;;;;;;;12.50;9.73;;;14.20;99.90;;;;;;4480934;27;657675;-69
2021/06/28 01:05:32;;;;;;;15.47;10.17;;;14.20;99.90;;;;;;4500425;27;658628;-70
2021/06/28 01:08:20;;;;;;;15.43;10.10;;;14.20;99.90;;;;;;4477001;27;659199;-70
2021/06/28 01:11:08;;;;;;;17.07;10.47;;;14.20;99.90;;;;;;4479472;27;659381;-69
2021/06/28 01:13:56;;;;;;;15.83;10.27;;;14.20;99.90;;;;;;4497712;27;659521;-70
2021/06/28 01:16:44;;;;;;;17.03;10.60;;;14.20;99.90;;;;;;4480225;27;658983;-69
2021/06/28 01:19:34;;;;;;;20.67;10.60;;;14.20;99.90;;;;;;4499732;27;658570;-69
2021/06/28 01:22:25;;;;;;;15.13;10.17;;;14.20;99.90;;;;;;4476404;27;658702;-69
2021/06/28 01:25:15;;;;;;;15.43;9.77;;;14.10;99.90;;;;;;4475827;27;658560;-69
2021/06/28 01:28:03;;;;;;;12.32;10.10;;;14.10;99.90;;;;;;4472525;27;657793;-69
2021/06/28 01:30:51;;;;;;;15.50;10.17;;;14.10;99.90;;;;;;4500788;27;659847;-69
2021/06/28 01:33:38;;;;;;;15.50;11.07;;;14.10;99.90;;;;;;4470392;27;658843;-69
2021/06/28 01:36:26;;;;;;;14.95;10.55;;;14.10;99.90;;;;;;4492655;27;659287;-69
2021/06/28 01:39:13;;;;;;;13.17;10.73;;;14.00;99.90;;;;;;4479371;27;659128;-70
2021/06/28 01:42:02;;;;;;;18.70;11.20;;;14.00;99.90;;;;;;4499420;27;659163;-70
2021/06/28 01:44:50;;;;;;;13.87;10.67;;;14.00;99.90;;;;;;4471492;27;659897;-70
2021/06/28 01:47:38;;;;;;;13.83;10.83;;;14.00;99.90;;;;;;4492480;27;658506;-69
2021/06/28 01:50:26;;;;;;;13.87;10.90;;;14.00;99.90;;;;;;4493772;27;659429;-69
2021/06/28 01:53:14;;;;;;;12.45;10.15;;;14.00;99.90;;;;;;4478666;27;658532;-69
2021/06/28 01:56:05;;;;;;;17.60;10.00;;;14.00;99.90;;;;;;4491856;27;659419;-69
2021/06/28 01:58:53;;;;;;;12.70;10.27;;;14.00;99.90;;;;;;4467959;27;658240;-69
2021/06/28 02:01:41;;;;;;;14.10;10.97;;;13.90;99.90;;;;;;4471445;27;658749;-69
2021/06/28 02:04:29;;;;;;;13.85;11.20;;;14.00;99.90;;;;;;4475858;27;658714;-69
2021/06/28 02:07:17;;;;;;;14.63;11.57;;;14.00;99.90;;;;;;4501706;27;658487;-69
2021/06/28 02:10:08;;;;;;;15.23;10.50;;;14.00;99.90;;;;;;4475240;27;660194;-69
2021/06/28 02:12:55;;;;;;;12.63;10.50;;;14.00;99.90;;;;;;4464730;27;659312;-69
2021/06/28 02:15:44;;;;;;;13.57;10.40;;;13.90;99.90;;;;;;4478710;27;658741;-69
2021/06/28 02:18:32;;;;;;;17.10;10.37;;;13.90;99.90;;;;;;4498153;27;658730;-70
2021/06/28 02:21:19;;;;;;;14.13;10.33;;;13.90;99.90;;;;;;4479372;27;659322;-69
2021/06/28 02:24:07;;;;;;;12.13;10.60;;;13.90;99.90;;;;;;4498668;27;659154;-69
2021/06/28 02:26:55;;;;;;;13.47;10.43;;;13.90;99.90;;;;;;4475401;27;660331;-69
2021/06/28 02:29:43;;;;;;;14.50;11.10;;;13.90;99.90;;;;;;4497814;27;658536;-69
2021/06/28 02:32:32;;;;;;;13.90;10.73;;;13.80;99.90;;;;;;4495874;27;659090;-69
2021/06/28 02:35:20;;;;;;;12.27;10.83;;;13.80;99.90;;;;;;4476714;27;659860;-69
2021/06/28 02:38:08;;;;;;;12.73;10.60;;;13.90;99.90;;;;;;4482598;27;658733;-69
2021/06/28 02:40:55;;;;;;;16.00;10.43;;;13.90;99.90;;;;;;4503955;27;659606;-69
2021/06/28 02:43:43;;;;;;;16.23;11.07;;;13.90;99.90;;;;;;4482813;27;658365;-69
2021/06/28 02:46:31;;;;;;;11.63;10.17;;;13.90;99.90;;;;;;4498916;27;659130;-69
2021/06/28 02:49:19;;;;;;;13.73;10.50;;;13.90;99.90;;;;;;4482368;27;659285;-69
2021/06/28 02:52:08;;;;;;;14.33;10.53;;;14.00;99.90;;;;;;4500838;27;659188;-69
2021/06/28 02:54:55;;;;;;;17.00;11.73;;;13.90;99.90;;;;;;4478462;27;659242;-69
2021/06/28 02:57:43;;;;;;;14.77;10.70;;;13.90;99.90;;;;;;4479634;27;659453;-69
2021/06/28 03:00:31;;;;;;;15.10;10.63;;;14.00;99.90;;;;;;4505074;27;659244;-69
2021/06/28 03:03:18;;;;;;;14.50;10.67;;;14.00;99.90;;;;;;4481896;27;658997;-69
2021/06/28 03:06:07;;;;;;;14.93;10.83;;;13.90;99.90;;;;;;4501356;27;659112;-69
2021/06/28 03:08:54;;;;;;;19.00;9.87;;;14.00;99.90;;;;;;4478387;27;659747;-69
2021/06/28 03:11:42;;;;;;;13.17;9.63;;;14.00;99.90;;;;;;4503402;27;657943;-69
2021/06/28 03:14:30;;;;;;;13.17;10.17;;;14.00;99.90;;;;;;4480046;27;657941;-69
2021/06/28 03:17:17;;;;;;;16.00;10.40;;;14.10;99.90;;;;;;4502216;27;659118;-69
2021/06/28 03:20:05;;;;;;;13.55;9.75;;;14.10;99.90;;;;;;4483202;27;659739;-69
2021/06/28 03:22:54;;;;;;;16.80;10.07;;;14.10;99.90;;;;;;4482598;27;657439;-69
2021/06/28 03:25:42;;;;;;;14.27;10.70;;;14.20;99.90;;;;;;4492909;27;658420;-69
2021/06/28 03:28:30;;;;;;;16.50;10.77;;;14.30;99.90;;;;;;4478376;27;659542;-69
2021/06/28 03:31:18;;;;;;;16.77;11.53;;;14.30;99.90;;;;;;4488625;27;658685;-69
2021/06/28 03:34:05;;;;;;;17.07;12.20;;;14.40;99.90;;;;;;4500127;27;659329;-69
2021/06/28 03:36:53;;;;;;;18.17;12.23;;;14.40;99.90;;;;;;4480685;27;658736;-69
2021/06/28 03:39:42;;;;;;;16.00;11.83;;;14.50;99.90;;;;;;4504951;27;659245;-69
2021/06/28 03:42:29;;;;;;;15.70;11.47;;;14.60;99.90;;;;;;4474774;27;658538;-69
2021/06/28 03:45:18;;;;;;;19.70;10.30;;;14.70;99.90;;;;;;4484582;27;658574;-69
2021/06/28 03:48:07;;;;;;;18.90;10.77;;;14.80;99.90;;;;;;4467964;27;659001;-69
2021/06/28 03:50:54;;;;;;;16.60;10.63;;;14.90;99.90;;;;;;4474820;27;658361;-69
2021/06/28 03:53:42;;;;;;;14.57;11.10;;;14.90;99.90;;;;;;4492562;27;658644;-69
2021/06/28 03:56:31;;;;;;;21.03;10.97;;;15.00;99.90;;;;;;4474412;27;658529;-69
2021/06/28 03:59:18;;;;;;;17.73;11.13;;;15.20;99.90;;;;;;4481785;27;659194;-69
2021/06/28 04:02:06;;;;;;;14.70;11.00;;;15.30;99.90;;;;;;4500317;27;659201;-69
2021/06/28 04:04:53;;;;;;;17.37;11.33;;;15.40;99.90;;;;;;4472018;27;658898;-69
2021/06/28 04:07:41;;;;;;;16.37;12.00;;;15.50;99.90;;;;;;4499262;27;659666;-69
2021/06/28 04:10:28;;;;;;;18.03;13.97;;;15.70;99.90;;;;;;4462003;27;658303;-69
2021/06/28 04:13:17;;;;;;;17.53;13.47;;;15.80;99.90;;;;;;4498253;27;659434;-69
2021/06/28 04:16:05;;;;;;;18.98;12.90;;;16.00;99.90;;;;;;4476843;27;659553;-69
2021/06/28 04:18:53;;;;;;;16.47;12.87;;;16.10;99.90;;;;;;4479525;27;658745;-69
2021/06/28 04:21:41;;;;;;;22.47;12.67;;;16.30;99.90;;;;;;4503859;27;659452;-69
2021/06/28 04:24:28;;;;;;;16.30;12.50;;;16.40;99.90;;;;;;4479414;27;658494;-69
2021/06/28 04:27:16;;;;;;;17.77;13.03;;;16.50;99.90;;;;;;4499632;27;659825;-69
2021/06/28 04:30:06;;;;;;;18.50;13.30;;;16.60;99.90;;;;;;4480361;27;658551;-69
2021/06/28 04:32:53;;;;;;;19.53;13.00;;;16.70;99.90;;;;;;4480176;27;658927;-69
2021/06/28 04:35:41;;;;;;;15.33;12.00;;;16.80;99.90;;;;;;4494109;27;659278;-69
2021/06/28 04:38:28;;;;;;;18.17;13.57;;;17.00;99.90;;;;;;4479910;27;658445;-69
2021/06/28 04:41:16;;;;;;;17.63;12.70;;;17.10;99.90;;;;;;4494580;27;658706;-69
2021/06/28 04:44:06;;;;;;;16.37;12.43;;;17.20;99.90;;;;;;4480403;27;658756;-69
2021/06/28 04:46:55;;;;;;;18.40;12.20;;;17.30;99.90;;;;;;4481250;27;659002;-69
2021/06/28 04:49:43;;;;;;;17.47;12.40;;;17.50;99.90;;;;;;4479648;27;658555;-69
2021/06/28 04:52:31;;;;;;;18.57;11.90;;;17.50;99.90;;;;;;4503117;27;659331;-69
2021/06/28 04:55:18;;;;;;;17.20;12.43;;;17.70;99.90;;;;;;4480251;27;658908;-69
2021/06/28 04:58:06;;;;;;;18.20;12.70;;;17.80;99.90;;;;;;4498184;27;659564;-69
2021/06/28 05:00:54;;;;;;;17.30;12.40;;;17.80;99.90;;;;;;4478243;27;658612;-69
2021/06/28 05:03:43;;;;;;;18.10;13.07;;;18.00;99.90;;;;;;4504593;27;658934;-70
2021/06/28 05:06:30;;;;;;;16.80;12.20;;;18.10;99.90;;;;;;4466044;27;659231;-69
2021/06/28 05:09:20;;;;;;;13.87;11.67;;;18.30;99.90;;;;;;4479685;27;659272;-70
2021/06/28 05:12:09;;;;;;;17.23;12.63;;;18.40;99.90;;;;;;4474565;27;660219;-69
2021/06/28 05:14:57;;;;;;;18.20;13.63;;;18.50;99.90;;;;;;4499114;27;658878;-69
2021/06/28 05:17:45;;;;;;;19.37;13.10;;;18.60;99.90;;;;;;4479917;27;659616;-69
2021/06/28 05:20:34;;;;;;;17.37;12.73;;;18.70;99.90;;;;;;4498767;27;658352;-69
2021/06/28 05:23:21;;;;;;;18.87;12.27;;;18.80;99.90;;;;;;4468797;27;659347;-69
2021/06/28 05:26:09;;;;;;;18.92;12.55;;;19.00;99.90;;;;;;4479219;27;658793;-69
2021/06/28 05:28:57;;;;;;;18.07;13.23;;;19.10;99.90;;;;;;4497124;27;658460;-69
2021/06/28 05:31:44;;;;;;;16.70;12.60;;;19.20;99.90;;;;;;4479336;27;659397;-69
2021/06/28 05:34:32;;;;;;;21.30;13.90;;;19.40;99.90;;;;;;4498214;27;659413;-70
2021/06/28 05:37:21;;;;;;;21.80;13.27;;;19.60;99.90;;;;;;4472976;27;659945;-69
2021/06/28 05:40:10;;;;;;;18.77;12.53;;;19.70;99.90;;;;;;4471044;27;658690;-69
2021/06/28 05:42:57;;;;;;;19.50;13.30;;;19.90;99.90;;;;;;4498497;27;658736;-69
2021/06/28 05:45:48;;;;;;;18.37;12.70;;;20.00;99.90;;;;;;4474159;27;658781;-69
2021/06/28 05:48:36;;;;;;;20.53;13.57;;;20.20;99.90;;;;;;4476421;27;658970;-69
2021/06/28 05:51:23;;;;;;;22.83;14.73;;;20.40;99.90;;;;;;4480768;27;658793;-69
2021/06/28 05:54:12;;;;;;;21.50;15.27;;;20.50;99.90;;;;;;4499977;27;658726;-69
2021/06/28 05:57:00;;;;;;;19.40;13.13;;;20.60;99.90;;;;;;4470961;27;659966;-69
2021/06/28 05:59:48;;;;;;;24.40;13.90;;;20.70;99.90;;;;;;4470949;27;658705;-69
2021/06/28 06:02:36;;;;;;;20.30;12.57;;;20.80;99.90;;;;;;4491467;27;659263;-69
2021/06/28 06:05:23;;;;;;;19.53;12.23;;;21.00;99.90;;;;;;4479906;27;658646;-69
2021/06/28 06:08:11;;;;;;;17.30;12.87;;;21.10;99.90;;;;;;4493899;27;659181;-69
2021/06/28 06:11:00;;;;;;;18.83;12.30;;;21.30;99.90;;;;;;4473910;27;659000;-69
2021/06/28 06:13:48;;;;;;;14.30;11.43;;;21.40;99.90;;;;;;4479828;27;658538;-69
2021/06/28 06:16:36;;;;;;;14.63;11.00;;;21.50;99.90;;;;;;4496711;27;658976;-69
2021/06/28 06:19:23;;;;;;;17.90;12.03;;;21.60;99.90;;;;;;4473762;27;658571;-69
2021/06/28 06:22:11;;;;;;;17.30;12.00;;;21.70;99.90;;;;;;4495519;27;658960;-69
2021/06/28 06:24:59;;;;;;;15.77;12.03;;;21.90;99.90;;;;;;4481828;27;658579;-70
2021/06/28 06:27:47;;;;;;;15.23;11.07;;;22.00;99.90;;;;;;4501943;27;658738;-70
2021/06/28 06:30:35;;;;;;;17.60;11.93;;;22.10;99.90;;;;;;4478040;27;659814;-69
2021/06/28 06:33:23;;;;;;;15.97;11.97;;;22.20;99.90;;;;;;4473208;27;658991;-69
2021/06/28 06:36:10;;;;;;;18.07;12.77;;;22.30;99.90;;;;;;4502090;27;659424;-69
2021/06/28 06:38:58;;;;;;;15.97;12.77;;;22.40;99.90;;;;;;4478732;27;658844;-69
2021/06/28 06:41:46;;;;;;;16.87;12.67;;;22.50;99.90;;;;;;4501305;27;659344;-70
2021/06/28 06:44:40;;;;;;;17.60;12.67;;;22.60;99.90;;;;;;4475487;27;658723;-70
2021/06/28 06:47:28;;;;;;;18.47;12.23;;;22.60;99.90;;;;;;4456876;27;658774;-69
2021/06/28 06:50:16;;;;;;;17.20;12.40;;;22.80;99.90;;;;;;4501050;27;659584;-70
2021/06/28 06:53:04;;;;;;;14.73;11.33;;;22.80;99.90;;;;;;4482879;27;658549;-69
2021/06/28 06:55:52;;;;;;;15.60;11.27;;;22.90;99.90;;;;;;4488953;27;658546;-69
2021/06/28 06:58:39;;;;;;;16.47;12.23;;;22.90;99.90;;;;;;4464868;27;659197;-70
2021/06/28 07:01:28;;;;;;;14.33;11.10;;;23.10;99.90;;;;;;4483303;27;658317;-70
2021/06/28 07:04:16;;;;;;;17.90;10.53;;;23.30;99.90;;;;;;4477110;27;659382;-70
2021/06/28 07:07:04;;;;;;;16.00;10.80;;;23.50;99.90;;;;;;4480224;27;658733;-69
2021/06/28 07:09:51;;;;;;;13.07;9.47;;;23.50;99.90;;;;;;4494085;27;658839;-69
2021/06/28 07:12:39;;;;;;;17.77;10.03;;;23.70;99.90;;;;;;4471552;27;657653;-69
2021/06/28 07:15:27;;;;;;;12.67;9.50;;;23.80;99.90;;;;;;4500457;27;658241;-70
2021/06/28 07:18:16;;;;;;;12.77;10.03;;;23.80;99.90;;;;;;4482186;27;657947;-70
2021/06/28 07:21:04;;;;;;;10.73;9.10;;;23.80;99.90;;;;;;4480029;27;659732;-69
2021/06/28 07:23:52;;;;;;;13.80;9.70;;;24.00;99.90;;;;;;4500587;27;658865;-69
2021/06/28 07:26:40;;;;;;;10.73;8.93;;;24.30;99.90;;;;;;4479284;27;657375;-70
2021/06/28 07:29:28;;;;;;;10.48;8.73;;;24.40;99.90;;;;;;4493733;27;657992;-69
2021/06/28 07:32:15;;;;;;;12.50;8.23;;;24.60;99.90;;;;;;4501012;27;658132;-70
2021/06/28 07:35:05;;;;;;;12.93;8.10;;;24.70;99.90;;;;;;4484074;27;657505;-69
2021/06/28 07:37:53;;;;;;;9.25;7.35;;;24.80;99.90;;;;;;4487591;27;657448;-69
2021/06/28 07:40:48;;;;;;;8.20;7.35;;;24.80;99.90;;;;;;4509293;27;656917;-70
2021/06/28 07:43:36;;;;;;;9.82;7.43;;;24.80;99.90;;;;;;4480685;27;657184;-70
2021/06/28 07:46:23;;;;;;;10.20;7.28;;;24.90;99.90;;;;;;4484795;27;656428;-70
2021/06/28 07:49:11;;;;;;;10.70;7.50;;;25.00;99.90;;;;;;4503322;27;657751;-70
2021/06/28 07:52:00;;;;;;;9.52;7.45;;;25.00;99.90;;;;;;4482759;27;657939;-69
2021/06/28 07:54:48;;;;;;;9.02;6.78;;;24.90;99.90;;;;;;4498128;27;657030;-69
2021/06/28 07:57:35;;;;;;;14.57;7.72;;;25.20;99.90;;;;;;4505338;27;657654;-70
2021/06/28 08:00:23;;;;;;;9.02;7.60;;;25.40;99.90;;;;;;4484590;27;657618;-69
2021/06/28 08:03:11;;;;;;;10.52;6.70;;;25.50;99.90;;;;;;4505567;27;656930;-70
2021/06/28 08:05:58;;;;;;;8.05;7.10;;;25.60;99.90;;;;;;4482968;27;657489;-70
2021/06/28 08:08:48;;;;;;;15.07;8.38;;;25.70;99.90;;;;;;4502614;27;657527;-69
2021/06/28 08:11:35;;;;;;;10.20;7.90;;;25.60;99.90;;;;;;4479552;27;658070;-70
2021/06/28 08:14:23;;;;;;;8.90;7.27;;;25.70;99.90;;;;;;4482717;27;658030;-69
2021/06/28 08:17:11;;;;;;;8.38;7.22;;;25.70;99.90;;;;;;4506536;27;657032;-69
2021/06/28 08:19:58;;;;;;;8.98;7.55;;;25.90;99.90;;;;;;4484254;27;656793;-70
2021/06/28 08:22:46;;;;;;;9.93;7.32;;;26.40;99.90;;;;;;4503829;27;656954;-69
2021/06/28 08:25:35;;;;;;;12.25;7.93;;;26.60;99.90;;;;;;4484244;27;657193;-70
2021/06/28 08:28:26;;;;;;;10.45;8.18;;;26.80;99.90;;;;;;4483092;27;657604;-70
2021/06/28 08:31:14;;;;;;;11.55;7.47;;;26.90;99.90;;;;;;4477827;27;658310;-69
2021/06/28 08:34:02;;;;;;;10.90;7.20;;;27.20;99.90;;;;;;4482858;27;658108;-69
2021/06/28 08:36:49;;;;;;;12.25;7.57;;;27.20;99.90;;;;;;4480499;27;658263;-70
2021/06/28 08:39:38;;;;;;;10.27;7.75;;;27.10;99.90;;;;;;4500902;27;657683;-70
2021/06/28 08:42:27;;;;;;;9.20;6.75;;;27.10;99.90;;;;;;4504025;27;658422;-70
2021/06/28 08:45:16;;;;;;;8.40;7.05;;;27.20;99.90;;;;;;4470642;27;657380;-70
2021/06/28 08:48:04;;;;;;;8.07;7.03;;;27.10;99.90;;;;;;4481921;27;656439;-70
2021/06/28 08:50:54;;;;;;;7.97;7.18;;;26.50;99.90;;;;;;4503354;27;657129;-70
2021/06/28 08:53:42;;;;;;;8.75;7.18;;;26.10;99.90;;;;;;4471075;27;657330;-70
2021/06/28 08:56:29;;;;;;;10.07;6.80;;;25.90;99.90;;;;;;4483623;27;657588;-70
2021/06/28 08:59:18;;;;;;;10.80;7.22;;;25.60;99.90;;;;;;4496305;27;657860;-71
2021/06/28 09:02:06;;;;;;;8.77;7.50;;;25.60;99.90;;;;;;4473700;27;657815;-71
2021/06/28 09:04:58;;;;;;;13.05;6.97;;;25.50;99.90;;;;;;4479216;27;656259;-70
2021/06/28 09:07:46;;;;;;;9.45;7.43;;;25.50;99.90;;;;;;4476153;27;658616;-70
2021/06/28 09:10:34;;;;;;;11.43;7.85;;;25.50;99.90;;;;;;4481422;27;656269;-70
2021/06/28 09:13:36;;;;;;;7.85;6.75;;;25.10;99.90;;;;;;4501045;27;657443;-71
2021/06/28 09:16:27;;;;;;;10.00;7.25;;;25.00;99.90;;;;;;4449468;27;656844;-70
2021/06/28 09:19:16;;;;;;;11.77;7.20;;;25.40;99.90;;;;;;4477872;27;658894;-71
2021/06/28 09:22:04;;;;;;;15.43;7.03;;;25.80;99.90;;;;;;4477979;27;657891;-70
2021/06/28 09:24:54;;;;;;;8.77;6.57;;;26.50;99.90;;;;;;4499503;27;658010;-70
2021/06/28 09:27:43;;;;;;;10.25;7.53;;;26.80;99.90;;;;;;4479480;27;656442;-70
2021/06/28 09:30:30;;;;;;;11.15;7.05;;;27.10;99.90;;;;;;4478317;27;658249;-71
2021/06/28 09:33:22;;;;;;;7.15;6.45;;;27.50;99.90;;;;;;4462832;27;657698;-69
2021/06/28 09:36:20;;;;;;;10.20;6.47;;;28.00;99.90;;;;;;4465645;27;658549;-69
2021/06/28 09:39:27;;;;;;;10.32;6.60;;;27.90;99.90;;;;;;4458583;27;657570;-70
2021/06/28 09:42:16;;;;;;;8.57;6.90;;;27.80;99.90;;;;;;4453384;27;658307;-70
2021/06/28 09:45:08;;;;;;;10.27;7.05;;;27.60;98.00;;;;;;4482105;27;656545;-70
2021/06/28 09:47:58;;;;;;;10.02;6.22;;;27.80;96.10;;;;;;4467500;27;658248;-71
2021/06/28 09:50:48;;;;;;;7.25;5.55;;;28.10;96.40;;;;;;4468967;27;657972;-71
2021/06/28 09:53:35;;;;;;;7.60;6.30;;;28.20;95.30;;;;;;4471672;27;657689;-72
2021/06/28 09:56:31;;;;;;;8.30;5.68;;;28.30;94.20;;;;;;4473669;27;656714;-70
2021/06/28 09:59:32;;;;;;;13.43;6.13;;;28.40;95.20;;;;;;4453354;27;657231;-70
2021/06/28 10:02:22;;;;;;;11.10;6.32;;;28.50;93.70;;;;;;4446144;27;659011;-70
2021/06/28 10:05:15;;;;;;;12.68;7.03;;;28.20;92.90;;;;;;4478540;27;658108;-71
2021/06/28 10:08:14;;;;;;;7.80;6.10;;;28.20;93.00;;;;;;4473351;27;657944;-70
2021/06/28 10:11:15;;;;;;;9.55;6.10;;;28.80;91.70;;;;;;4471360;27;656349;-71
2021/06/28 10:14:04;;;;;;;9.30;5.65;;;29.10;91.80;;;;;;4459151;27;657036;-70
2021/06/28 10:16:56;;;;;;;10.88;5.60;;;28.80;90.40;;;;;;4496806;27;656408;-71
2021/06/28 10:19:44;;;;;;;6.47;5.88;;;28.70;91.00;;;;;;4466502;27;657933;-72
2021/06/28 10:22:32;;;;;;;9.32;5.88;;;28.60;90.40;;;;;;4501154;27;656607;-70
2021/06/28 10:25:22;;;;;;;7.20;5.97;;;28.70;86.10;;;;;;4477257;27;658702;-70
2021/06/28 10:28:10;;;;;;;8.63;6.30;;;29.10;89.40;;;;;;4481960;27;657239;-70
2021/06/28 10:30:58;;;;;;;7.60;6.43;;;29.80;91.60;;;;;;4484723;27;656715;-69
2021/06/28 10:33:56;;;;;;;8.00;6.60;;;30.20;91.40;;;;;;4497396;27;657048;-69
2021/06/28 10:36:45;;;;;;;7.68;5.85;;;30.50;90.70;;;;;;4470858;27;656876;-70
2021/06/28 10:39:33;;;;;;;8.65;6.25;;;30.70;89.70;;;;;;4485387;27;656655;-70
2021/06/28 10:42:32;;;;;;;12.15;6.45;;;31.10;87.20;;;;;;4502278;27;657879;-71
2021/06/28 10:45:39;;;;;;;7.20;5.25;;;31.40;84.30;;;;;;4477355;27;657452;-71
2021/06/28 10:49:07;;;;;;;6.20;4.80;;;31.40;72.00;;;;;;4463361;27;656895;-71
2021/06/28 10:52:05;;;;;;;8.77;4.97;;;31.30;67.70;;;;;;4478093;27;657246;-70
2021/06/28 10:54:58;;;;;;;7.22;5.15;;;31.10;68.30;;;;;;4464257;27;656926;-69
2021/06/28 10:57:48;;;;;;;8.35;4.93;;;30.70;65.40;;;;;;4475286;27;657592;-70
2021/06/28 11:00:55;;;;;;;5.10;4.50;;;31.10;67.20;;;;;;4479711;27;657024;-71
2021/06/28 11:04:10;;;;;;;8.30;4.90;;;30.90;64.30;;;;;;4462411;27;656978;-70
2021/06/28 11:07:09;;;;;;;6.80;4.95;;;30.80;66.60;;;;;;4460237;27;656552;-70
2021/06/28 11:09:57;;;;;;;5.75;4.57;;;31.00;65.20;;;;;;4479486;27;656453;-70
2021/06/28 11:12:54;;;;;;;5.20;4.70;;;30.80;63.90;;;;;;4478801;27;657473;-71
2021/06/28 11:16:03;;;;;;;6.25;5.65;;;30.30;70.10;;;;;;4475412;27;657237;-71
2021/06/28 11:18:51;;;;;;;5.72;5.15;;;30.00;71.80;;;;;;4470451;27;657394;-71
2021/06/28 11:21:40;;;;;;;6.25;5.65;;;30.20;73.80;;;;;;4479692;27;656561;-71
2021/06/28 11:24:31;;;;;;;19.38;6.25;;;29.90;70.60;;;;;;4482976;27;656405;-70
2021/06/28 11:27:23;;;;;;;10.23;5.72;;;30.20;72.00;;;;;;4480764;27;657560;-70
2021/06/28 11:30:25;;;;;;;5.80;5.22;;;30.30;72.10;;;;;;4474558;27;658689;-70
2021/06/28 11:33:32;;;;;;;6.75;5.43;;;30.40;66.60;;;;;;4456912;27;657164;-70
2021/06/28 11:36:37;;;;;;;7.00;5.60;;;30.50;71.00;;;;;;4450709;27;657235;-71
2021/06/28 11:39:31;;;;;;;6.07;5.57;;;30.60;71.60;;;;;;4454389;27;656996;-72
2021/06/28 11:42:37;;;;;;;6.28;5.68;;;30.40;67.80;;;;;;4458488;27;656962;-71
2021/06/28 11:45:27;;;;;;;7.28;4.90;;;30.60;72.20;;;;;;4401358;28;656549;-72
2021/06/28 11:48:38;;;;;;;5.65;5.10;;;30.60;69.60;;;;;;4429522;28;657135;-72
2021/06/28 11:51:29;;;;;;;6.70;5.60;;;29.60;69.60;;;;;;4426047;28;657381;-72
2021/06/28 11:54:19;;;;;;;7.95;5.57;;;29.20;71.20;;;;;;4425542;28;656349;-71
2021/06/28 11:57:16;;;;;;;7.18;5.88;;;29.60;72.20;;;;;;4421681;28;656934;-71
2021/06/28 12:00:07;;;;;;;6.50;5.45;;;29.60;70.30;;;;;;4427863;28;656453;-71
2021/06/28 12:03:12;;;;;;;7.13;5.38;;;29.60;69.20;;;;;;4425095;28;657972;-72
2021/06/28 12:06:06;;;;;;;7.35;5.63;;;29.80;66.70;;;;;;4400002;28;657444;-71
2021/06/28 12:09:06;;;;;;;8.63;6.20;;;29.60;69.50;;;;;;4418104;28;656519;-71
2021/06/28 12:11:55;;;;;;;6.43;5.80;;;29.70;75.50;;;;;;4420360;28;656569;-71
2021/06/28 12:14:44;;;;;;;8.95;6.18;;;29.90;77.20;;;;;;4442374;28;656767;-71
2021/06/28 12:17:33;;;;;;;7.88;6.05;;;30.00;80.00;;;;;;4448216;28;656347;-72
2021/06/28 12:20:34;;;;;;;6.40;5.68;;;30.20;81.40;;;;;;4477768;27;657568;-71
2021/06/28 12:23:23;;;;;;;6.80;6.10;;;30.40;83.30;;;;;;4477018;27;656613;-71
2021/06/28 12:26:13;;;;;;;6.53;5.80;;;30.20;82.80;;;;;;4472734;27;658020;-72
2021/06/28 12:29:29;;;;;;;7.18;6.10;;;29.90;78.90;;;;;;4478885;27;657065;-72
2021/06/28 12:32:20;;;;;;;8.43;5.80;;;29.50;82.90;;;;;;4462549;27;656330;-71
2021/06/28 12:35:09;;;;;;;6.93;6.20;;;29.50;86.70;;;;;;4454471;27;656641;-70
2021/06/28 12:38:00;;;;;;;10.93;6.07;;;29.20;81.00;;;;;;4502132;27;656360;-72
2021/06/28 12:40:49;;;;;;;8.80;6.10;;;29.30;85.70;;;;;;4447046;27;657357;-71
2021/06/28 12:43:36;;;;;;;6.65;5.72;;;29.30;84.40;;;;;;4501038;27;657059;-72
2021/06/28 12:46:24;;;;;;;9.95;6.43;;;29.10;87.10;;;;;;4478968;27;656886;-72
2021/06/28 12:49:12;;;;;;;6.68;5.60;;;28.80;86.40;;;;;;4493875;27;657427;-70
2021/06/28 12:52:24;;;;;;;7.72;6.43;;;29.00;90.40;;;;;;4479443;27;657724;-71
2021/06/28 12:55:21;;;;;;;6.40;5.65;;;29.50;83.30;;;;;;4473676;27;657301;-71
2021/06/28 12:58:10;;;;;;;6.80;6.03;;;29.20;82.20;;;;;;4451403;27;658035;-71
2021/06/28 13:00:58;;;;;;;7.57;6.22;;;29.20;88.70;;;;;;4492400;27;656440;-70
2021/06/28 13:03:53;;;;;;;11.70;6.22;;;28.90;87.00;;;;;;4496800;27;657752;-72
2021/06/28 13:06:40;;;;;;;7.03;6.15;;;28.80;85.80;;;;;;4493898;27;658484;-72
2021/06/28 13:09:31;;;;;;;9.98;6.07;;;28.90;88.30;;;;;;4482787;27;656933;-71
2021/06/28 13:12:27;;;;;;;13.50;7.78;;;29.40;83.40;;;;;;4483931;27;657079;-71
2021/06/28 13:15:19;;;;;;;10.70;7.05;;;29.80;74.70;;;;;;4454195;27;658635;-71
2021/06/28 13:18:08;;;;;;;9.35;5.75;;;29.90;76.50;;;;;;4478012;27;657557;-71
2021/06/28 13:20:59;;;;;;;5.95;5.45;;;30.60;84.40;;;;;;4467075;27;657023;-71
2021/06/28 13:23:50;;;;;;;6.47;5.22;;;31.00;75.70;;;;;;4461897;27;656935;-70
2021/06/28 13:26:39;;;;;;;7.30;5.70;;;31.10;67.50;;;;;;4491225;27;656749;-69
2021/06/28 13:29:34;;;;;;;10.73;5.97;;;31.30;66.70;;;;;;4503113;27;657042;-70
2021/06/28 13:32:25;;;;;;;7.23;5.20;;;31.40;70.70;;;;;;4465382;27;658199;-71
2021/06/28 13:35:26;;;;;;;5.80;4.93;;;31.40;64.60;;;;;;4478476;27;656393;-71
2021/06/28 13:38:16;;;;;;;6.45;5.82;;;31.40;67.60;;;;;;4454740;27;657339;-73
2021/06/28 13:41:08;;;;;;;7.00;5.63;;;31.20;66.10;;;;;;4479657;27;656316;-70
2021/06/28 13:44:09;;;;;;;6.65;5.40;;;31.10;65.10;;;;;;4477641;27;657468;-71
2021/06/28 13:47:08;;;;;;;6.63;5.50;;;31.10;63.90;;;;;;4479761;27;656807;-70
2021/06/28 13:49:57;;;;;;;6.93;5.70;;;31.10;67.50;;;;;;4478771;27;657180;-70
2021/06/28 13:52:44;;;;;;;7.70;5.80;;;31.20;63.40;;;;;;4482709;27;658174;-70
2021/06/28 13:55:32;;;;;;;9.13;5.65;;;31.70;64.50;;;;;;4501459;27;657375;-70
2021/06/28 13:58:21;;;;;;;8.13;5.55;;;32.10;64.50;;;;;;4479408;27;656757;-70
2021/06/28 14:01:08;;;;;;;8.75;5.60;;;32.10;59.50;;;;;;4482125;27;657192;-71
2021/06/28 14:03:58;;;;;;;6.30;5.38;;;31.90;64.50;;;;;;4498941;27;658360;-72
2021/06/28 14:06:45;;;;;;;9.93;5.95;;;31.40;61.60;;;;;;4478632;27;657255;-72
2021/06/28 14:09:33;;;;;;;10.05;6.35;;;30.90;71.20;;;;;;4481385;27;656406;-71
2021/06/28 14:12:21;;;;;;;8.13;5.80;;;31.00;67.40;;;;;;4499821;27;658861;-72
2021/06/28 14:15:10;;;;;;;10.63;6.03;;;31.00;65.30;;;;;;4481886;27;657180;-71
2021/06/28 14:17:58;;;;;;;6.80;5.82;;;31.10;62.80;;;;;;4485449;27;658429;-70
2021/06/28 14:20:48;;;;;;;8.25;5.70;;;30.90;62.00;;;;;;4505349;27;656965;-70